sensor_id;sensor_type;location;lat;lon;timestamp;P1;durP1;ratioP1;P2;durP2;ratioP2
23768;SDS011;12064;50.890;5.424;2022-09-24T00:01:40;3.97;;;3.30;;
23768;SDS011;12064;50.890;5.424;2022-09-24T00:10:37;3.78;;;3.33;;
23768;SDS011;12064;50.890;5.424;2022-09-24T00:19:32;3.72;;;3.33;;
23768;SDS011;12064;50.890;5.424;2022-09-24T00:28:23;3.60;;;3.10;;
23768;SDS011;12064;50.890;5.424;2022-09-24T00:37:14;3.97;;;3.40;;
23768;SDS011;12064;50.890;5.424;2022-09-24T00:46:13;4.20;;;3.33;;
23768;SDS011;12064;50.890;5.424;2022-09-24T00:55:14;4.30;;;3.42;;
23768;SDS011;12064;50.890;5.424;2022-09-24T01:04:09;3.97;;;3.50;;
23768;SDS011;12064;50.890;5.424;2022-09-24T01:13:02;4.28;;;3.28;;
23768;SDS011;12064;50.890;5.424;2022-09-24T01:32:01;3.80;;;3.17;;
23768;SDS011;12064;50.890;5.424;2022-09-24T01:40:59;3.40;;;3.05;;
23768;SDS011;12064;50.890;5.424;2022-09-24T01:49:52;3.45;;;3.15;;
23768;SDS011;12064;50.890;5.424;2022-09-24T01:58:50;3.40;;;3.10;;
23768;SDS011;12064;50.890;5.424;2022-09-24T02:07:47;3.63;;;3.25;;
23768;SDS011;12064;50.890;5.424;2022-09-24T02:26:18;3.67;;;3.13;;
23768;SDS011;12064;50.890;5.424;2022-09-24T02:44:58;2.90;;;2.60;;
23768;SDS011;12064;50.890;5.424;2022-09-24T02:53:49;3.78;;;3.20;;
23768;SDS011;12064;50.890;5.424;2022-09-24T03:02:40;3.40;;;3.00;;
23768;SDS011;12064;50.890;5.424;2022-09-24T03:30:20;4.03;;;3.22;;
23768;SDS011;12064;50.890;5.424;2022-09-24T03:39:29;3.47;;;3.13;;
23768;SDS011;12064;50.890;5.424;2022-09-24T03:48:20;3.23;;;2.93;;
23768;SDS011;12064;50.890;5.424;2022-09-24T03:57:12;3.70;;;3.30;;
23768;SDS011;12064;50.890;5.424;2022-09-24T04:06:04;4.28;;;3.38;;
23768;SDS011;12064;50.890;5.424;2022-09-24T04:14:55;3.85;;;3.30;;
23768;SDS011;12064;50.890;5.424;2022-09-24T04:23:46;3.67;;;3.35;;
23768;SDS011;12064;50.890;5.424;2022-09-24T04:32:36;3.50;;;2.80;;
23768;SDS011;12064;50.890;5.424;2022-09-24T04:41:30;3.60;;;3.10;;
23768;SDS011;12064;50.890;5.424;2022-09-24T04:50:21;4.27;;;3.33;;
23768;SDS011;12064;50.890;5.424;2022-09-24T04:59:24;3.20;;;2.90;;
23768;SDS011;12064;50.890;5.424;2022-09-24T05:08:14;3.10;;;2.80;;
23768;SDS011;12064;50.890;5.424;2022-09-24T05:17:06;3.28;;;2.97;;
23768;SDS011;12064;50.890;5.424;2022-09-24T05:25:56;3.20;;;2.90;;
23768;SDS011;12064;50.890;5.424;2022-09-24T05:35:05;3.25;;;2.88;;
23768;SDS011;12064;50.890;5.424;2022-09-24T05:43:59;3.83;;;3.13;;
23768;SDS011;12064;50.890;5.424;2022-09-24T05:52:58;3.88;;;3.13;;
23768;SDS011;12064;50.890;5.424;2022-09-24T06:01:52;3.40;;;3.10;;
23768;SDS011;12064;50.890;5.424;2022-09-24T06:10:43;3.40;;;3.10;;
23768;SDS011;12064;50.890;5.424;2022-09-24T06:19:36;3.30;;;3.00;;
23768;SDS011;12064;50.890;5.424;2022-09-24T06:28:35;3.33;;;3.03;;
23768;SDS011;12064;50.890;5.424;2022-09-24T06:37:26;3.20;;;2.90;;
23768;SDS011;12064;50.890;5.424;2022-09-24T06:46:17;3.70;;;3.20;;
23768;SDS011;12064;50.890;5.424;2022-09-24T06:55:08;3.83;;;3.13;;
23768;SDS011;12064;50.890;5.424;2022-09-24T07:03:59;4.18;;;3.45;;
23768;SDS011;12064;50.890;5.424;2022-09-24T07:12:57;3.67;;;3.22;;
23768;SDS011;12064;50.890;5.424;2022-09-24T07:21:52;4.45;;;3.38;;
23768;SDS011;12064;50.890;5.424;2022-09-24T07:30:42;4.53;;;3.50;;
23768;SDS011;12064;50.890;5.424;2022-09-24T07:39:33;4.03;;;3.20;;
23768;SDS011;12064;50.890;5.424;2022-09-24T07:48:27;4.47;;;3.45;;
23768;SDS011;12064;50.890;5.424;2022-09-24T07:57:17;4.00;;;3.58;;
23768;SDS011;12064;50.890;5.424;2022-09-24T08:06:08;4.97;;;3.40;;
23768;SDS011;12064;50.890;5.424;2022-09-24T08:14:59;5.90;;;3.50;;
23768;SDS011;12064;50.890;5.424;2022-09-24T08:23:49;3.80;;;3.33;;
23768;SDS011;12064;50.890;5.424;2022-09-24T08:32:45;4.03;;;3.53;;
23768;SDS011;12064;50.890;5.424;2022-09-24T08:41:46;4.82;;;3.65;;
23768;SDS011;12064;50.890;5.424;2022-09-24T08:50:49;5.85;;;3.65;;
23768;SDS011;12064;50.890;5.424;2022-09-24T08:59:50;5.03;;;3.67;;
23768;SDS011;12064;50.890;5.424;2022-09-24T09:26:47;5.93;;;4.57;;
23768;SDS011;12064;50.890;5.424;2022-09-24T09:35:43;5.57;;;4.27;;
23768;SDS011;12064;50.890;5.424;2022-09-24T09:54:34;4.03;;;3.60;;
23768;SDS011;12064;50.890;5.424;2022-09-24T10:03:27;6.30;;;5.70;;
23768;SDS011;12064;50.890;5.424;2022-09-24T10:22:34;6.63;;;5.93;;
23768;SDS011;12064;50.890;5.424;2022-09-24T10:31:38;7.82;;;5.60;;
23768;SDS011;12064;50.890;5.424;2022-09-24T10:40:38;6.35;;;5.55;;
23768;SDS011;12064;50.890;5.424;2022-09-24T11:25:58;10.02;;;5.95;;
23768;SDS011;12064;50.890;5.424;2022-09-24T12:03:15;11.48;;;5.97;;
23768;SDS011;12064;50.890;5.424;2022-09-24T12:12:15;11.35;;;5.90;;
23768;SDS011;12064;50.890;5.424;2022-09-24T12:21:17;13.10;;;6.18;;
23768;SDS011;12064;50.890;5.424;2022-09-24T12:48:47;12.88;;;6.22;;
23768;SDS011;12064;50.890;5.424;2022-09-24T12:57:40;9.35;;;5.80;;
23768;SDS011;12064;50.890;5.424;2022-09-24T13:06:52;9.77;;;5.70;;
23768;SDS011;12064;50.890;5.424;2022-09-24T13:15:56;9.43;;;5.95;;
23768;SDS011;12064;50.890;5.424;2022-09-24T13:25:16;8.90;;;5.63;;
23768;SDS011;12064;50.890;5.424;2022-09-24T13:43:16;7.88;;;5.53;;
23768;SDS011;12064;50.890;5.424;2022-09-24T13:52:39;8.52;;;5.25;;
23768;SDS011;12064;50.890;5.424;2022-09-24T14:10:33;7.50;;;5.70;;
23768;SDS011;12064;50.890;5.424;2022-09-24T14:19:25;7.35;;;5.68;;
23768;SDS011;12064;50.890;5.424;2022-09-24T14:28:18;7.57;;;5.88;;
23768;SDS011;12064;50.890;5.424;2022-09-24T14:37:20;8.75;;;5.28;;
23768;SDS011;12064;50.890;5.424;2022-09-24T14:46:45;7.03;;;5.30;;
23768;SDS011;12064;50.890;5.424;2022-09-24T15:14:54;8.43;;;5.38;;
23768;SDS011;12064;50.890;5.424;2022-09-24T15:23:59;6.57;;;5.00;;
23768;SDS011;12064;50.890;5.424;2022-09-24T15:32:53;7.22;;;5.30;;
23768;SDS011;12064;50.890;5.424;2022-09-24T15:41:45;7.03;;;5.07;;
23768;SDS011;12064;50.890;5.424;2022-09-24T15:50:37;7.47;;;5.47;;
23768;SDS011;12064;50.890;5.424;2022-09-24T15:59:29;7.25;;;5.25;;
23768;SDS011;12064;50.890;5.424;2022-09-24T16:08:19;5.37;;;4.50;;
23768;SDS011;12064;50.890;5.424;2022-09-24T16:26:49;5.32;;;4.80;;
23768;SDS011;12064;50.890;5.424;2022-09-24T16:35:40;6.03;;;4.60;;
23768;SDS011;12064;50.890;5.424;2022-09-24T16:44:30;5.80;;;4.85;;
23768;SDS011;12064;50.890;5.424;2022-09-24T16:53:21;5.33;;;4.50;;
23768;SDS011;12064;50.890;5.424;2022-09-24T17:02:13;5.53;;;4.60;;
23768;SDS011;12064;50.890;5.424;2022-09-24T17:11:08;5.35;;;4.40;;
23768;SDS011;12064;50.890;5.424;2022-09-24T17:19:59;6.07;;;4.67;;
23768;SDS011;12064;50.890;5.424;2022-09-24T17:28:50;5.47;;;4.38;;
23768;SDS011;12064;50.890;5.424;2022-09-24T17:47:09;6.88;;;4.95;;
23768;SDS011;12064;50.890;5.424;2022-09-24T17:55:59;6.07;;;4.70;;
23768;SDS011;12064;50.890;5.424;2022-09-24T18:04:54;5.60;;;4.43;;
23768;SDS011;12064;50.890;5.424;2022-09-24T18:13:53;5.93;;;4.72;;
23768;SDS011;12064;50.890;5.424;2022-09-24T18:22:45;4.80;;;4.32;;
23768;SDS011;12064;50.890;5.424;2022-09-24T18:31:36;5.13;;;4.40;;
23768;SDS011;12064;50.890;5.424;2022-09-24T18:40:27;5.05;;;4.30;;
23768;SDS011;12064;50.890;5.424;2022-09-24T18:49:18;4.70;;;4.10;;
23768;SDS011;12064;50.890;5.424;2022-09-24T18:58:09;5.90;;;4.30;;
23768;SDS011;12064;50.890;5.424;2022-09-24T19:07:00;5.18;;;4.40;;
23768;SDS011;12064;50.890;5.424;2022-09-24T19:25:31;4.78;;;3.85;;
23768;SDS011;12064;50.890;5.424;2022-09-24T19:34:23;4.00;;;3.60;;
23768;SDS011;12064;50.890;5.424;2022-09-24T19:43:13;5.27;;;4.23;;
23768;SDS011;12064;50.890;5.424;2022-09-24T19:52:07;4.60;;;4.00;;
23768;SDS011;12064;50.890;5.424;2022-09-24T20:10:11;4.22;;;3.78;;
23768;SDS011;12064;50.890;5.424;2022-09-24T20:19:02;5.17;;;4.00;;
23768;SDS011;12064;50.890;5.424;2022-09-24T20:27:54;6.63;;;4.13;;
23768;SDS011;12064;50.890;5.424;2022-09-24T20:36:46;4.90;;;3.97;;
23768;SDS011;12064;50.890;5.424;2022-09-24T20:45:38;4.75;;;3.97;;
23768;SDS011;12064;50.890;5.424;2022-09-24T20:54:32;4.78;;;4.00;;
23768;SDS011;12064;50.890;5.424;2022-09-24T21:03:23;4.38;;;3.97;;
23768;SDS011;12064;50.890;5.424;2022-09-24T21:12:15;4.95;;;4.25;;
23768;SDS011;12064;50.890;5.424;2022-09-24T21:21:13;4.67;;;3.70;;
23768;SDS011;12064;50.890;5.424;2022-09-24T21:30:06;3.90;;;3.50;;
23768;SDS011;12064;50.890;5.424;2022-09-24T21:38:58;4.20;;;3.80;;
23768;SDS011;12064;50.890;5.424;2022-09-24T21:47:50;3.55;;;3.25;;
23768;SDS011;12064;50.890;5.424;2022-09-24T21:56:42;3.58;;;3.28;;
23768;SDS011;12064;50.890;5.424;2022-09-24T22:05:39;4.15;;;3.40;;
23768;SDS011;12064;50.890;5.424;2022-09-24T22:14:34;5.05;;;3.50;;
23768;SDS011;12064;50.890;5.424;2022-09-24T22:23:25;3.45;;;3.15;;
23768;SDS011;12064;50.890;5.424;2022-09-24T22:32:18;3.65;;;3.25;;
23768;SDS011;12064;50.890;5.424;2022-09-24T22:41:09;3.80;;;3.40;;
23768;SDS011;12064;50.890;5.424;2022-09-24T22:50:01;3.97;;;3.47;;
23768;SDS011;12064;50.890;5.424;2022-09-24T22:58:55;3.40;;;3.10;;
23768;SDS011;12064;50.890;5.424;2022-09-24T23:07:50;3.47;;;3.15;;
23768;SDS011;12064;50.890;5.424;2022-09-24T23:16:46;3.47;;;3.17;;
23768;SDS011;12064;50.890;5.424;2022-09-24T23:25:36;3.33;;;2.90;;
23768;SDS011;12064;50.890;5.424;2022-09-24T23:34:27;3.67;;;3.37;;
23768;SDS011;12064;50.890;5.424;2022-09-24T23:43:18;3.30;;;3.00;;
23768;SDS011;12064;50.890;5.424;2022-09-24T23:52:12;3.30;;;3.00;;
